createdAt,value
2018-08-20T00:01:51.293Z,6.63
2018-08-20T00:04:20.991Z,6.43
2018-08-20T00:06:56.164Z,7.60
2018-08-20T00:09:34.239Z,6.83
2018-08-20T00:12:04.395Z,6.53
2018-08-20T00:14:34.079Z,7.00
2018-08-20T00:17:03.784Z,6.43
2018-08-20T00:19:33.499Z,7.03
2018-08-20T00:22:03.276Z,6.27
2018-08-20T00:24:32.960Z,7.03
2018-08-20T00:27:03.813Z,6.80
2018-08-20T00:29:37.313Z,6.20
2018-08-20T00:32:07.071Z,7.00
2018-08-20T00:34:36.730Z,6.97
2018-08-20T00:37:06.394Z,6.70
2018-08-20T00:39:36.064Z,6.63
2018-08-20T00:42:05.820Z,6.77
2018-08-20T00:44:36.555Z,6.63
2018-08-20T00:47:06.260Z,7.07
2018-08-20T00:49:35.988Z,6.43
2018-08-20T00:52:05.801Z,6.63
2018-08-20T00:54:35.487Z,7.33
2018-08-20T00:57:05.212Z,6.77
2018-08-20T00:59:34.876Z,7.17
2018-08-20T01:02:04.672Z,6.57
2018-08-20T01:04:34.351Z,6.97
2018-08-20T01:07:04.048Z,6.70
2018-08-20T01:09:33.799Z,7.00
2018-08-20T01:12:03.563Z,6.77
2018-08-20T01:14:33.265Z,6.73
2018-08-20T01:17:02.938Z,6.53
2018-08-20T01:19:32.607Z,7.07
2018-08-20T01:22:02.327Z,6.87
2018-08-20T01:24:32.008Z,7.47
2018-08-20T01:27:01.680Z,6.67
2018-08-20T01:29:31.384Z,6.53
2018-08-20T01:32:01.060Z,6.97
2018-08-20T01:34:30.783Z,7.43
2018-08-20T01:37:00.928Z,8.10
2018-08-20T01:39:30.631Z,7.50
2018-08-20T01:42:00.284Z,7.73
2018-08-20T01:44:30.276Z,7.13
2018-08-20T01:46:59.935Z,7.37
2018-08-20T01:49:29.611Z,7.17
2018-08-20T01:51:59.269Z,7.60
2018-08-20T01:54:28.963Z,7.43
2018-08-20T01:56:58.644Z,7.00
2018-08-20T01:59:28.396Z,6.70
2018-08-20T02:01:58.132Z,7.30
2018-08-20T02:04:27.869Z,7.37
2018-08-20T02:06:57.556Z,6.90
2018-08-20T02:09:27.295Z,7.27
2018-08-20T02:11:56.999Z,7.30
2018-08-20T02:14:26.744Z,7.60
2018-08-20T02:16:56.419Z,7.77
2018-08-20T02:19:26.179Z,7.53
2018-08-20T02:21:55.842Z,7.47
2018-08-20T02:24:25.529Z,7.03
2018-08-20T02:26:55.236Z,7.90
2018-08-20T02:29:24.910Z,7.63
2018-08-20T02:31:54.572Z,7.40
2018-08-20T02:34:24.263Z,6.93
2018-08-20T02:36:53.960Z,6.93
2018-08-20T02:39:23.652Z,7.00
2018-08-20T02:41:53.380Z,7.63
2018-08-20T02:44:23.093Z,6.60
2018-08-20T02:46:54.163Z,7.03
2018-08-20T02:49:23.856Z,7.70
2018-08-20T02:51:53.559Z,7.20
2018-08-20T02:54:23.271Z,6.90
2018-08-20T02:56:52.940Z,7.10
2018-08-20T02:59:22.941Z,7.47
2018-08-20T03:01:52.631Z,8.03
2018-08-20T03:04:22.363Z,7.17
2018-08-20T03:06:52.014Z,6.83
2018-08-20T03:09:21.720Z,7.10
2018-08-20T03:11:51.403Z,7.77
2018-08-20T03:14:21.099Z,8.10
2018-08-20T03:16:50.758Z,7.87
2018-08-20T03:19:20.475Z,7.87
2018-08-20T03:21:50.142Z,8.20
2018-08-20T03:24:19.849Z,8.37
2018-08-20T03:26:49.537Z,8.23
2018-08-20T03:29:19.259Z,8.00
2018-08-20T03:31:48.986Z,7.80
2018-08-20T03:34:18.663Z,8.77
2018-08-20T03:36:48.407Z,7.73
2018-08-20T03:39:18.156Z,7.80
2018-08-20T03:41:47.856Z,7.90
2018-08-20T03:44:17.563Z,8.37
2018-08-20T03:46:47.313Z,7.60
2018-08-20T03:49:16.991Z,7.63
2018-08-20T03:51:46.752Z,7.07
2018-08-20T03:54:16.440Z,8.50
2018-08-20T03:56:46.176Z,7.17
2018-08-20T03:59:46.796Z,6.87
2018-08-20T04:02:16.491Z,7.00
2018-08-20T04:04:46.146Z,7.50
2018-08-20T04:07:15.828Z,7.07
2018-08-20T04:09:45.538Z,6.57
2018-08-20T04:12:15.200Z,7.30
2018-08-20T04:14:44.851Z,7.27
2018-08-20T04:17:14.548Z,6.67
2018-08-20T04:19:44.501Z,7.13
2018-08-20T04:22:14.247Z,6.93
2018-08-20T04:24:43.928Z,7.20
2018-08-20T04:27:13.633Z,6.60
2018-08-20T04:29:43.304Z,7.43
2018-08-20T04:32:13.043Z,6.87
2018-08-20T04:34:42.755Z,7.30
2018-08-20T04:37:12.423Z,7.83
2018-08-20T04:39:42.139Z,8.17
2018-08-20T04:42:11.908Z,7.80
2018-08-20T04:44:41.540Z,7.27
2018-08-20T04:47:11.268Z,7.50
2018-08-20T04:49:40.928Z,7.90
2018-08-20T04:52:10.567Z,8.20
2018-08-20T04:54:40.267Z,8.27
2018-08-20T04:57:09.956Z,7.27
2018-08-20T04:59:39.615Z,7.13
2018-08-20T05:02:09.331Z,8.30
2018-08-20T05:04:39.000Z,7.27
2018-08-20T05:07:08.771Z,7.13
2018-08-20T05:09:38.424Z,7.70
2018-08-20T05:12:08.143Z,7.77
2018-08-20T05:14:37.799Z,7.40
2018-08-20T05:17:07.518Z,7.07
2018-08-20T05:19:37.172Z,7.53
2018-08-20T05:22:06.906Z,7.67
2018-08-20T05:24:36.608Z,8.73
2018-08-20T05:27:06.728Z,8.43
2018-08-20T05:29:36.467Z,8.10
2018-08-20T05:32:06.464Z,8.23
2018-08-20T05:34:36.408Z,8.87
2018-08-20T05:37:06.335Z,10.03
2018-08-20T05:39:36.561Z,9.47
2018-08-20T05:42:06.425Z,9.07
2018-08-20T05:44:36.155Z,9.03
2018-08-20T05:47:06.056Z,8.73
2018-08-20T05:49:35.740Z,8.53
2018-08-20T05:52:06.041Z,9.87
2018-08-20T05:54:35.802Z,8.67
2018-08-20T05:57:06.012Z,8.30
2018-08-20T05:59:35.788Z,8.00
2018-08-20T06:02:05.536Z,9.27
2018-08-20T06:04:35.251Z,9.80
2018-08-20T06:07:04.990Z,9.23
2018-08-20T06:09:34.672Z,9.30
2018-08-20T06:12:04.484Z,9.40
2018-08-20T06:14:34.187Z,10.03
2018-08-20T06:17:03.981Z,10.80
2018-08-20T06:19:33.728Z,9.70
2018-08-20T06:22:03.533Z,10.87
2018-08-20T06:24:33.229Z,9.47
2018-08-20T06:27:03.035Z,9.07
2018-08-20T06:29:32.737Z,9.17
2018-08-20T06:32:02.492Z,8.40
2018-08-20T06:34:32.198Z,9.10
2018-08-20T06:37:01.884Z,9.13
2018-08-20T06:39:31.601Z,8.13
2018-08-20T06:42:01.309Z,7.50
2018-08-20T06:44:31.010Z,8.93
2018-08-20T06:47:01.092Z,7.83
2018-08-20T06:49:30.793Z,8.00
2018-08-20T06:52:00.499Z,8.40
2018-08-20T06:54:30.281Z,7.23
2018-08-20T06:57:00.010Z,7.57
2018-08-20T06:59:29.691Z,7.20
2018-08-20T07:01:59.584Z,6.50
2018-08-20T07:04:29.978Z,5.00
2018-08-20T07:06:59.741Z,4.97
2018-08-20T07:09:29.425Z,6.23
2018-08-20T07:11:59.190Z,6.00
2018-08-20T07:14:28.959Z,6.37
2018-08-20T07:16:58.650Z,5.73
2018-08-20T07:19:28.739Z,5.03
2018-08-20T07:21:58.483Z,4.90
2018-08-20T07:24:28.211Z,4.60
2018-08-20T07:26:57.932Z,4.47
2018-08-20T07:29:38.724Z,4.27
2018-08-20T07:32:16.350Z,4.33
2018-08-20T07:34:47.000Z,3.87
2018-08-20T07:37:17.810Z,4.43
2018-08-20T07:39:48.668Z,3.87
2018-08-20T07:42:18.499Z,3.87
2018-08-20T07:44:48.229Z,4.63
2018-08-20T07:47:18.005Z,4.17
2018-08-20T07:49:47.751Z,3.67
2018-08-20T07:52:17.433Z,3.60
2018-08-20T07:54:47.165Z,3.73
2018-08-20T07:57:16.869Z,3.40
2018-08-20T07:59:46.548Z,3.33
2018-08-20T08:02:16.316Z,3.30
2018-08-20T08:04:45.972Z,3.00
2018-08-20T08:07:15.685Z,2.93
2018-08-20T08:09:45.396Z,2.70
2018-08-20T08:12:15.125Z,2.63
2018-08-20T08:14:44.835Z,3.03
2018-08-20T08:17:14.538Z,2.67
2018-08-20T08:19:44.379Z,2.80
2018-08-20T08:22:14.017Z,2.93
2018-08-20T08:24:43.793Z,2.60
2018-08-20T08:27:13.505Z,3.07
2018-08-20T08:29:43.255Z,3.37
2018-08-20T08:32:13.008Z,3.40
2018-08-20T08:34:42.700Z,3.70
2018-08-20T08:37:12.398Z,3.13
2018-08-20T08:39:42.148Z,3.10
2018-08-20T08:42:11.847Z,4.03
2018-08-20T08:44:41.654Z,4.10
2018-08-20T08:47:11.424Z,3.27
2018-08-20T08:49:41.224Z,3.30
2018-08-20T08:52:10.970Z,2.97
2018-08-20T08:54:40.899Z,2.97
2018-08-20T08:57:10.605Z,2.90
2018-08-20T08:59:40.380Z,2.77
2018-08-20T09:02:10.071Z,5.97
2018-08-20T09:04:39.743Z,3.87
2018-08-20T09:07:09.952Z,3.90
2018-08-20T09:09:39.704Z,6.03
2018-08-20T09:12:09.552Z,6.30
2018-08-20T09:14:39.339Z,4.33
2018-08-20T09:17:09.107Z,3.60
2018-08-20T09:19:38.880Z,3.60
2018-08-20T09:22:08.796Z,4.90
2018-08-20T09:24:38.548Z,3.37
2018-08-20T09:27:08.305Z,3.70
2018-08-20T09:29:38.005Z,4.13
2018-08-20T09:32:08.301Z,4.27
2018-08-20T09:34:38.208Z,5.33
2018-08-20T09:37:07.938Z,4.47
2018-08-20T09:39:37.626Z,5.83
2018-08-20T09:42:07.391Z,4.03
2018-08-20T09:44:37.087Z,4.23
2018-08-20T09:47:06.856Z,4.10
2018-08-20T09:49:36.605Z,3.93
2018-08-20T09:52:06.304Z,4.07
2018-08-20T09:54:36.047Z,4.37
2018-08-20T09:57:05.774Z,3.50
2018-08-20T09:59:35.507Z,3.40
2018-08-20T10:02:05.636Z,3.83
2018-08-20T10:04:35.296Z,4.07
2018-08-20T10:07:05.002Z,3.87
2018-08-20T10:09:34.715Z,4.33
2018-08-20T10:12:04.629Z,4.73
2018-08-20T10:14:34.343Z,4.33
2018-08-20T10:17:04.083Z,4.27
2018-08-20T10:19:33.765Z,4.43
2018-08-20T10:22:03.752Z,4.50
2018-08-20T10:24:33.452Z,4.07
2018-08-20T10:27:03.203Z,3.93
2018-08-20T10:29:32.891Z,4.20
2018-08-20T10:32:02.696Z,4.43
2018-08-20T10:34:32.372Z,3.77
2018-08-20T10:37:02.413Z,4.10
2018-08-20T10:39:32.125Z,4.20
2018-08-20T10:42:02.220Z,3.90
2018-08-20T10:44:36.005Z,4.03
2018-08-20T10:47:05.828Z,4.37
2018-08-20T10:49:36.172Z,4.00
2018-08-20T10:52:05.917Z,3.90
2018-08-20T10:54:35.612Z,3.97
2018-08-20T10:57:05.941Z,4.90
2018-08-20T10:59:35.842Z,4.20
2018-08-20T11:02:05.684Z,4.30
2018-08-20T11:04:35.351Z,3.87
2018-08-20T11:07:05.132Z,4.67
2018-08-20T11:09:34.904Z,6.20
2018-08-20T11:12:04.664Z,4.67
2018-08-20T11:14:34.356Z,5.77
2018-08-20T11:17:04.060Z,4.50
2018-08-20T11:19:33.728Z,4.83
2018-08-20T11:22:03.579Z,4.40
2018-08-20T11:24:33.384Z,4.90
2018-08-20T11:27:03.178Z,4.47
2018-08-20T11:29:32.817Z,3.95
2018-08-20T11:32:02.529Z,6.03
2018-08-20T11:34:32.269Z,5.70
2018-08-20T11:37:01.935Z,5.20
2018-08-20T11:39:31.610Z,5.65
2018-08-20T11:42:01.332Z,6.92
2018-08-20T11:44:31.039Z,5.05
2018-08-20T11:47:00.708Z,7.80
2018-08-20T11:49:30.819Z,5.83
2018-08-20T11:52:00.848Z,6.27
2018-08-20T11:54:30.568Z,6.20
2018-08-20T11:57:00.284Z,7.10
2018-08-20T11:59:29.988Z,6.40
2018-08-20T12:01:59.773Z,5.92
2018-08-20T12:04:29.871Z,5.67
2018-08-20T12:06:59.590Z,6.40
2018-08-20T12:09:29.300Z,5.58
2018-08-20T12:11:59.024Z,6.83
2018-08-20T12:14:28.692Z,6.70
2018-08-20T12:16:58.368Z,6.00
2018-08-20T12:19:28.027Z,6.17
2018-08-20T12:21:57.723Z,6.15
2018-08-20T12:24:27.408Z,6.35
2018-08-20T12:26:57.104Z,5.60
2018-08-20T12:29:26.810Z,5.67
2018-08-20T12:31:56.534Z,5.33
2018-08-20T12:34:26.407Z,6.37
2018-08-20T12:36:55.982Z,6.35
2018-08-20T12:39:25.693Z,6.25
2018-08-20T12:41:56.380Z,6.42
2018-08-20T12:44:26.067Z,6.12
2018-08-20T12:46:55.742Z,5.90
2018-08-20T12:49:25.446Z,6.87
2018-08-20T12:51:55.124Z,6.53
2018-08-20T12:54:24.784Z,6.42
2018-08-20T12:56:54.707Z,6.47
2018-08-20T12:59:24.371Z,6.75
2018-08-20T13:01:54.057Z,6.60
2018-08-20T13:04:23.735Z,6.87
2018-08-20T13:06:53.406Z,6.20
2018-08-20T13:09:23.101Z,6.20
2018-08-20T13:11:52.768Z,6.33
2018-08-20T13:14:22.471Z,5.75
2018-08-20T13:16:52.162Z,6.37
2018-08-20T13:19:21.864Z,6.08
2018-08-20T13:21:51.526Z,5.75
2018-08-20T13:24:21.229Z,5.25
2018-08-20T13:26:50.904Z,4.65
2018-08-20T13:29:20.620Z,4.50
2018-08-20T13:31:50.341Z,3.98
2018-08-20T13:34:20.003Z,4.15
2018-08-20T13:36:49.707Z,3.98
2018-08-20T13:39:19.408Z,3.70
2018-08-20T13:41:49.083Z,4.78
2018-08-20T13:44:18.848Z,3.77
2018-08-20T13:46:48.580Z,4.15
2018-08-20T13:49:18.272Z,4.00
2018-08-20T13:51:47.981Z,3.52
2018-08-20T13:54:17.683Z,3.60
2018-08-20T13:56:47.387Z,3.40
2018-08-20T13:59:17.127Z,3.45
2018-08-20T14:01:46.786Z,3.50
2018-08-20T14:04:16.456Z,3.37
2018-08-20T14:06:46.175Z,3.70
2018-08-20T14:09:15.825Z,3.87
2018-08-20T14:11:45.499Z,3.87
2018-08-20T14:14:15.212Z,4.12
2018-08-20T14:16:44.900Z,4.00
2018-08-20T14:19:14.602Z,4.05
2018-08-20T14:21:44.332Z,3.70
2018-08-20T14:24:13.998Z,3.80
2018-08-20T14:26:43.645Z,3.60
2018-08-20T14:29:13.356Z,3.20
2018-08-20T14:31:43.021Z,2.60
2018-08-20T14:34:12.720Z,2.52
2018-08-20T14:36:42.781Z,2.45
2018-08-20T14:39:12.375Z,2.00
2018-08-20T14:41:42.097Z,2.00
2018-08-20T14:44:11.776Z,2.10
2018-08-20T14:46:41.448Z,1.90
2018-08-20T14:49:11.156Z,1.80
2018-08-20T14:51:40.840Z,2.05
2018-08-20T14:54:10.532Z,2.12
2018-08-20T14:56:40.257Z,2.62
2018-08-20T14:59:09.933Z,3.12
2018-08-20T15:01:39.598Z,2.37
2018-08-20T15:04:09.500Z,3.87
2018-08-20T15:06:55.980Z,3.95
2018-08-20T15:09:26.915Z,4.50
2018-08-20T15:11:57.141Z,3.40
2018-08-20T15:14:26.833Z,3.70
2018-08-20T15:16:56.648Z,3.33
2018-08-20T15:19:26.367Z,3.80
2018-08-20T15:21:56.096Z,4.37
2018-08-20T15:24:25.775Z,4.28
2018-08-20T15:26:55.915Z,4.70
2018-08-20T15:29:25.598Z,4.50
2018-08-20T15:31:55.287Z,5.10
2018-08-20T15:34:24.960Z,4.47
2018-08-20T15:36:54.624Z,4.40
2018-08-20T15:39:24.373Z,4.80
2018-08-20T15:41:54.033Z,4.45
2018-08-20T15:44:23.699Z,4.08
2018-08-20T15:46:53.408Z,5.25
2018-08-20T15:49:23.059Z,4.70
2018-08-20T15:51:52.741Z,4.35
2018-08-20T15:54:22.496Z,4.55
2018-08-20T15:56:52.153Z,4.60
2018-08-20T15:59:21.828Z,4.85
2018-08-20T16:01:51.528Z,4.03
2018-08-20T16:04:21.205Z,3.95
2018-08-20T16:06:50.877Z,3.80
2018-08-20T16:09:20.716Z,4.20
2018-08-20T16:11:50.423Z,5.20
2018-08-20T16:14:20.137Z,5.85
2018-08-20T16:16:49.825Z,4.75
2018-08-20T16:19:19.695Z,4.75
2018-08-20T16:21:49.403Z,4.15
2018-08-20T16:24:19.073Z,3.80
2018-08-20T16:26:48.904Z,3.98
2018-08-20T16:29:18.581Z,4.00
2018-08-20T16:31:48.297Z,4.28
2018-08-20T16:34:17.991Z,3.72
2018-08-20T16:36:47.743Z,3.45
2018-08-20T16:39:17.486Z,3.42
2018-08-20T16:41:47.211Z,3.33
2018-08-20T16:44:16.880Z,3.92
2018-08-20T16:46:46.551Z,3.37
2018-08-20T16:49:16.476Z,3.05
2018-08-20T16:51:46.187Z,3.55
2018-08-20T16:54:15.933Z,3.55
2018-08-20T16:56:45.628Z,3.47
2018-08-20T16:59:15.309Z,3.05
2018-08-20T17:01:44.983Z,3.30
2018-08-20T17:04:29.816Z,3.65
2018-08-20T17:07:01.245Z,3.40
2018-08-20T17:09:30.980Z,3.80
2018-08-20T17:12:00.664Z,3.45
2018-08-20T17:14:30.360Z,3.47
2018-08-20T17:17:00.044Z,3.50
2018-08-20T17:19:29.752Z,3.45
2018-08-20T17:21:59.422Z,2.83
2018-08-20T17:24:34.212Z,3.60
2018-08-20T17:27:03.895Z,2.80
2018-08-20T17:29:33.600Z,2.92
2018-08-20T17:32:04.728Z,2.30
2018-08-20T17:34:35.160Z,2.50
2018-08-20T17:37:04.880Z,2.37
2018-08-20T17:39:35.644Z,2.47
2018-08-20T17:42:05.335Z,2.20
2018-08-20T17:44:35.157Z,2.40
2018-08-20T17:47:04.939Z,2.52
2018-08-20T17:49:34.652Z,2.40
2018-08-20T17:52:04.367Z,2.10
2018-08-20T17:54:34.141Z,2.40
2018-08-20T17:57:03.853Z,2.50
2018-08-20T17:59:33.555Z,2.22
2018-08-20T18:02:03.485Z,2.30
2018-08-20T18:04:33.167Z,2.13
2018-08-20T18:07:03.037Z,2.33
2018-08-20T18:09:32.779Z,2.20
2018-08-20T18:12:04.483Z,2.40
2018-08-20T18:14:34.340Z,2.40
2018-08-20T18:17:04.067Z,2.13
2018-08-20T18:19:33.796Z,2.77
2018-08-20T18:22:03.740Z,1.97
2018-08-20T18:24:33.439Z,2.10
2018-08-20T18:27:03.131Z,1.70
2018-08-20T18:29:32.829Z,1.53
2018-08-20T18:32:03.826Z,1.73
2018-08-20T18:34:33.556Z,1.70
2018-08-20T18:37:04.154Z,2.10
2018-08-20T18:39:33.918Z,1.87
2018-08-20T18:42:08.299Z,1.60
2018-08-20T18:44:38.092Z,1.83
2018-08-20T18:47:09.204Z,1.50
2018-08-20T18:49:45.159Z,1.43
2018-08-20T18:52:15.339Z,1.23
2018-08-20T18:55:00.381Z,1.33
2018-08-20T18:57:33.288Z,1.30
2018-08-20T19:00:04.855Z,1.50
2018-08-20T19:02:36.144Z,1.20
2018-08-20T19:05:08.153Z,1.40
2018-08-20T19:07:37.923Z,1.37
2018-08-20T19:10:12.061Z,1.47
2018-08-20T19:12:41.807Z,1.20
2018-08-20T19:15:23.745Z,1.20
2018-08-20T19:17:53.688Z,1.67
2018-08-20T19:20:23.459Z,1.40
2018-08-20T19:22:53.204Z,1.60
2018-08-20T19:25:22.909Z,1.70
2018-08-20T19:27:52.611Z,1.40
2018-08-20T19:30:23.893Z,1.33
2018-08-20T19:32:53.648Z,1.63
2018-08-20T19:35:23.326Z,1.80
2018-08-20T19:37:53.061Z,1.57
2018-08-20T19:40:22.725Z,1.33
2018-08-20T19:42:53.185Z,1.47
2018-08-20T19:45:26.941Z,1.50
2018-08-20T19:47:56.753Z,1.27
2018-08-20T19:50:26.842Z,1.83
2018-08-20T19:52:56.581Z,1.50
2018-08-20T19:55:26.300Z,1.60
2018-08-20T19:57:56.068Z,1.50
2018-08-20T20:00:25.808Z,1.20
2018-08-20T20:02:55.490Z,1.20
2018-08-20T20:05:25.347Z,1.17
2018-08-20T20:08:05.304Z,1.40
2018-08-20T20:10:35.157Z,1.27
2018-08-20T20:13:04.864Z,1.50
2018-08-20T20:15:36.133Z,1.57
2018-08-20T20:18:05.932Z,1.50
2018-08-20T20:20:35.656Z,1.40
2018-08-20T20:23:05.497Z,1.40
2018-08-20T20:25:35.673Z,1.60
2018-08-20T20:28:05.480Z,1.50
2018-08-20T20:30:35.245Z,1.50
2018-08-20T20:33:05.416Z,1.70
2018-08-20T20:35:35.227Z,1.43
2018-08-20T20:38:05.734Z,1.50
2018-08-20T20:40:35.560Z,1.60
2018-08-20T20:43:05.344Z,1.57
2018-08-20T20:45:35.683Z,1.83
2018-08-20T20:48:05.843Z,1.63
2018-08-20T20:50:35.665Z,1.80
2018-08-20T20:53:06.252Z,1.90
2018-08-20T20:55:35.949Z,2.03
2018-08-20T20:58:06.040Z,1.97
2018-08-20T21:00:35.857Z,2.23
2018-08-20T21:03:11.262Z,1.80
2018-08-20T21:05:40.964Z,1.33
2018-08-20T21:08:10.688Z,1.90
2018-08-20T21:10:45.612Z,2.10
2018-08-20T21:13:15.333Z,2.30
2018-08-20T21:15:52.952Z,1.90
2018-08-20T21:18:22.757Z,2.23
2018-08-20T21:20:54.059Z,2.40
2018-08-20T21:23:23.811Z,2.20
2018-08-20T21:25:53.507Z,2.40
2018-08-20T21:28:25.732Z,1.80
2018-08-20T21:30:55.489Z,1.93
2018-08-20T21:33:25.272Z,1.57
2018-08-20T21:35:55.087Z,1.87
2018-08-20T21:38:25.216Z,1.93
2018-08-20T21:40:55.148Z,2.43
2018-08-20T21:43:24.989Z,2.10
2018-08-20T21:45:54.716Z,2.20
2018-08-20T21:48:24.424Z,2.17
2018-08-20T21:50:54.236Z,1.80
2018-08-20T21:53:28.066Z,1.73
2018-08-20T21:55:57.848Z,1.70
2018-08-20T21:58:27.553Z,1.63
2018-08-20T22:00:57.330Z,1.57
2018-08-20T22:03:27.142Z,1.70
2018-08-20T22:05:56.832Z,1.60
2018-08-20T22:08:26.588Z,1.37
2018-08-20T22:10:56.248Z,1.67
2018-08-20T22:13:25.981Z,1.13
2018-08-20T22:16:10.547Z,1.50
2018-08-20T22:18:42.544Z,1.47
2018-08-20T22:21:14.384Z,1.80
2018-08-20T22:23:44.845Z,1.60
2018-08-20T22:26:16.931Z,1.40
2018-08-20T22:28:49.083Z,1.70
2018-08-20T22:31:18.887Z,1.80
2018-08-20T22:33:55.640Z,2.03
2018-08-20T22:36:25.947Z,2.00
2018-08-20T22:38:59.698Z,1.60
2018-08-20T22:41:30.494Z,1.70
2018-08-20T22:44:00.307Z,1.97
2018-08-20T22:46:30.032Z,1.60
2018-08-20T22:49:00.814Z,1.43
2018-08-20T22:51:30.909Z,2.03
2018-08-20T22:54:02.337Z,1.40
2018-08-20T22:56:34.060Z,1.43
2018-08-20T22:59:06.414Z,1.50
2018-08-20T23:01:36.272Z,1.70
2018-08-20T23:04:06.517Z,1.60
2018-08-20T23:06:36.265Z,1.63
2018-08-20T23:09:36.872Z,1.70
2018-08-20T23:12:07.015Z,1.50
2018-08-20T23:14:36.759Z,1.17
2018-08-20T23:17:06.540Z,1.43
2018-08-20T23:19:36.271Z,1.57
2018-08-20T23:22:06.019Z,1.17
2018-08-20T23:24:38.324Z,1.70
2018-08-20T23:27:08.001Z,1.30
2018-08-20T23:29:37.683Z,1.00
2018-08-20T23:32:07.412Z,1.00
2018-08-20T23:34:37.208Z,1.00
2018-08-20T23:37:06.859Z,1.00
2018-08-20T23:39:36.551Z,0.80
2018-08-20T23:42:06.253Z,0.90
2018-08-20T23:44:35.931Z,1.00
2018-08-20T23:47:05.664Z,1.10
2018-08-20T23:49:35.312Z,1.03
2018-08-20T23:52:05.101Z,1.00
2018-08-20T23:54:34.779Z,0.90
2018-08-20T23:57:04.484Z,0.83
2018-08-20T23:59:34.204Z,0.87
